PRIVATE WETTERSTATION BILLIGHEIM-ALLFELD                       ZURCK
Wetterdaten: Donnerstag, 20.02.2014
Datum Zeit Temp. A. Temp. A. min Temp. A. max Feuchte A. Luftdruck Regen Wind Richtung Richtung Sonnenschein ET Solar Taupunkt Windchill Windben Empfang
20.02.2014 00:00 5,5 C 5,5 C 5,6 C 88 % 1016,1 hPa 0,0 l/m 1,6 km/h (1 Bft) SO 135 0 min 0,000 mm 0 W/m 3,7 C 5,5 C 6,4 km/h (2 Bft) 98 %
20.02.2014 00:10 5,5 C 5,5 C 5,5 C 88 % 1016,0 hPa 0,0 l/m 0,0 km/h (0 Bft) SO 135 0 min 0,000 mm 0 W/m 3,7 C 5,5 C 1,6 km/h (1 Bft) 97 %
20.02.2014 00:20 5,3 C 5,3 C 5,5 C 88 % 1016,2 hPa 0,0 l/m 0,0 km/h (0 Bft) S-SO 157 0 min 0,000 mm 0 W/m 3,5 C 5,3 C 1,6 km/h (1 Bft) 98 %
20.02.2014 00:30 5,1 C 5,1 C 5,3 C 88 % 1016,3 hPa 0,0 l/m 0,0 km/h (0 Bft) S-SO 157 0 min 0,000 mm 0 W/m 3,3 C 5,1 C 3,2 km/h (1 Bft) 97 %
20.02.2014 00:40 4,9 C 4,9 C 5,1 C 88 % 1016,1 hPa 0,0 l/m 0,0 km/h (0 Bft) S-SO 157 0 min 0,000 mm 0 W/m 3,1 C 4,9 C 6,4 km/h (2 Bft) 98 %
20.02.2014 00:50 4,8 C 4,8 C 4,9 C 88 % 1016,1 hPa 0,0 l/m 3,2 km/h (1 Bft) SO 135 0 min 0,000 mm 0 W/m 3,0 C 4,8 C 6,4 km/h (2 Bft) 98 %
20.02.2014 01:00 4,7 C 4,7 C 4,8 C 88 % 1016,2 hPa 0,0 l/m 1,6 km/h (1 Bft) SO 135 0 min 0,000 mm 0 W/m 2,9 C 4,7 C 6,4 km/h (2 Bft) 97 %
20.02.2014 01:10 4,6 C 4,6 C 4,7 C 88 % 1016,3 hPa 0,0 l/m 1,6 km/h (1 Bft) W-SW 247 0 min 0,000 mm 0 W/m 2,8 C 4,6 C 8,0 km/h (2 Bft) 98 %
20.02.2014 01:20 4,7 C 4,6 C 4,7 C 88 % 1016,3 hPa 0,0 l/m 1,6 km/h (1 Bft) SW 225 0 min 0,000 mm 0 W/m 2,9 C 4,7 C 8,0 km/h (2 Bft) 97 %
20.02.2014 01:30 4,6 C 4,6 C 4,7 C 88 % 1016,2 hPa 0,0 l/m 0,0 km/h (0 Bft) W-SW 247 0 min 0,000 mm 0 W/m 2,8 C 4,6 C 6,4 km/h (2 Bft) 98 %
20.02.2014 01:40 4,5 C 4,5 C 4,6 C 88 % 1016,3 hPa 0,0 l/m 0,0 km/h (0 Bft) W 270 0 min 0,000 mm 0 W/m 2,7 C 4,5 C 6,4 km/h (2 Bft) 98 %
20.02.2014 01:50 4,3 C 4,3 C 4,5 C 88 % 1016,3 hPa 0,0 l/m 0,0 km/h (0 Bft) W 270 0 min 0,000 mm 0 W/m 2,5 C 4,3 C 4,8 km/h (1 Bft) 98 %
20.02.2014 02:00 4,2 C 4,2 C 4,3 C 88 % 1016,2 hPa 0,0 l/m 0,0 km/h (0 Bft) W 270 0 min 0,000 mm 0 W/m 2,4 C 4,2 C 1,6 km/h (1 Bft) 98 %
20.02.2014 02:10 4,0 C 4,0 C 4,2 C 88 % 1016,3 hPa 0,0 l/m 0,0 km/h (0 Bft) W 270 0 min 0,000 mm 0 W/m 2,2 C 4,0 C 3,2 km/h (1 Bft) 88 %
20.02.2014 02:20 3,9 C 3,9 C 4,0 C 88 % 1016,3 hPa 0,0 l/m 0,0 km/h (0 Bft) N 0 0 min 0,000 mm 0 W/m 2,1 C 3,9 C 0,0 km/h (0 Bft) 98 %
20.02.2014 02:30 3,9 C 3,9 C 3,9 C 88 % 1016,6 hPa 0,0 l/m 0,0 km/h (0 Bft) W 270 0 min 0,000 mm 0 W/m 2,1 C 3,9 C 1,6 km/h (1 Bft) 97 %
20.02.2014 02:40 4,0 C 3,9 C 4,0 C 88 % 1016,6 hPa 0,0 l/m 0,0 km/h (0 Bft) W 270 0 min 0,000 mm 0 W/m 2,2 C 4,0 C 3,2 km/h (1 Bft) 98 %
20.02.2014 02:50 4,2 C 4,1 C 4,2 C 88 % 1016,5 hPa 0,0 l/m 0,0 km/h (0 Bft) N 0 0 min 0,000 mm 0 W/m 2,4 C 4,2 C 0,0 km/h (0 Bft) 98 %
20.02.2014 03:00 4,3 C 4,2 C 4,3 C 88 % 1016,5 hPa 0,0 l/m 0,0 km/h (0 Bft) N 0 0 min 0,000 mm 0 W/m 2,5 C 4,3 C 0,0 km/h (0 Bft) 97 %
20.02.2014 03:10 4,5 C 4,3 C 4,5 C 88 % 1016,5 hPa 0,0 l/m 0,0 km/h (0 Bft) N 0 0 min 0,000 mm 0 W/m 2,7 C 4,5 C 0,0 km/h (0 Bft) 98 %
20.02.2014 03:20 4,6 C 4,5 C 4,6 C 88 % 1016,4 hPa 0,0 l/m 0,0 km/h (0 Bft) N 0 0 min 0,000 mm 0 W/m 2,8 C 4,6 C 0,0 km/h (0 Bft) 97 %
20.02.2014 03:30 4,7 C 4,6 C 4,7 C 88 % 1016,5 hPa 0,0 l/m 0,0 km/h (0 Bft) N 0 0 min 0,000 mm 0 W/m 2,9 C 4,7 C 0,0 km/h (0 Bft) 98 %
20.02.2014 03:40 4,7 C 4,7 C 4,7 C 88 % 1016,3 hPa 0,0 l/m 0,0 km/h (0 Bft) N 0 0 min 0,000 mm 0 W/m 2,9 C 4,7 C 0,0 km/h (0 Bft) 97 %
20.02.2014 03:50 4,7 C 4,7 C 4,7 C 88 % 1016,3 hPa 0,0 l/m 0,0 km/h (0 Bft) N 0 0 min 0,000 mm 0 W/m 2,9 C 4,7 C 0,0 km/h (0 Bft) 98 %
20.02.2014 04:00 4,6 C 4,6 C 4,7 C 88 % 1016,2 hPa 0,0 l/m 0,0 km/h (0 Bft) W 270 0 min 0,000 mm 0 W/m 2,8 C 4,6 C 3,2 km/h (1 Bft) 98 %
20.02.2014 04:10 4,7 C 4,6 C 4,7 C 88 % 1016,1 hPa 0,0 l/m 1,6 km/h (1 Bft) W-SW 247 0 min 0,000 mm 0 W/m 2,9 C 4,7 C 3,2 km/h (1 Bft) 89 %
20.02.2014 04:20 4,7 C 4,7 C 4,7 C 88 % 1016,0 hPa 0,0 l/m 1,6 km/h (1 Bft) W-SW 247 0 min 0,000 mm 0 W/m 2,9 C 4,7 C 4,8 km/h (1 Bft) 98 %
20.02.2014 04:30 4,8 C 4,7 C 4,8 C 88 % 1016,1 hPa 0,0 l/m 1,6 km/h (1 Bft) SO 135 0 min 0,000 mm 0 W/m 3,0 C 4,8 C 4,8 km/h (1 Bft) 97 %
20.02.2014 04:40 4,7 C 4,7 C 4,8 C 88 % 1016,1 hPa 0,0 l/m 1,6 km/h (1 Bft) SO 135 0 min 0,000 mm 0 W/m 2,9 C 4,7 C 4,8 km/h (1 Bft) 98 %
20.02.2014 04:50 4,6 C 4,6 C 4,7 C 88 % 1016,1 hPa 0,0 l/m 1,6 km/h (1 Bft) S-SO 157 0 min 0,000 mm 0 W/m 2,8 C 4,6 C 4,8 km/h (1 Bft) 97 %
20.02.2014 05:00 4,6 C 4,6 C 4,6 C 88 % 1016,2 hPa 0,0 l/m 0,0 km/h (0 Bft) S-SO 157 0 min 0,000 mm 0 W/m 2,8 C 4,6 C 4,8 km/h (1 Bft) 98 %
20.02.2014 05:10 4,5 C 4,5 C 4,6 C 88 % 1016,2 hPa 0,0 l/m 1,6 km/h (1 Bft) S-SO 157 0 min 0,000 mm 0 W/m 2,7 C 4,5 C 4,8 km/h (1 Bft) 97 %
20.02.2014 05:20 4,5 C 4,5 C 4,5 C 88 % 1016,2 hPa 0,0 l/m 0,0 km/h (0 Bft) S-SO 157 0 min 0,000 mm 0 W/m 2,7 C 4,5 C 3,2 km/h (1 Bft) 98 %
20.02.2014 05:30 4,4 C 4,4 C 4,5 C 88 % 1016,2 hPa 0,0 l/m 0,0 km/h (0 Bft) S-SO 157 0 min 0,000 mm 0 W/m 2,6 C 4,4 C 3,2 km/h (1 Bft) 98 %
20.02.2014 05:40 4,5 C 4,4 C 4,5 C 88 % 1016,1 hPa 0,0 l/m 1,6 km/h (1 Bft) S-SO 157 0 min 0,000 mm 0 W/m 2,7 C 4,5 C 4,8 km/h (1 Bft) 97 %
20.02.2014 05:50 4,6 C 4,5 C 4,6 C 88 % 1016,0 hPa 0,0 l/m 1,6 km/h (1 Bft) S-SO 157 0 min 0,000 mm 0 W/m 2,8 C 4,6 C 4,8 km/h (1 Bft) 98 %
20.02.2014 06:00 4,6 C 4,6 C 4,6 C 88 % 1015,9 hPa 0,0 l/m 0,0 km/h (0 Bft) S-SO 157 0 min 0,000 mm 0 W/m 2,8 C 4,6 C 3,2 km/h (1 Bft) 97 %
20.02.2014 06:10 4,6 C 4,6 C 4,6 C 88 % 1015,9 hPa 0,0 l/m 0,0 km/h (0 Bft) S-SO 157 0 min 0,000 mm 0 W/m 2,8 C 4,6 C 4,8 km/h (1 Bft) 97 %
20.02.2014 06:20 4,6 C 4,6 C 4,6 C 88 % 1015,9 hPa 0,0 l/m 0,0 km/h (0 Bft) N 0 0 min 0,000 mm 0 W/m 2,8 C 4,6 C 0,0 km/h (0 Bft) 98 %
20.02.2014 06:30 4,5 C 4,5 C 4,6 C 88 % 1015,9 hPa 0,0 l/m 0,0 km/h (0 Bft) S-SO 157 0 min 0,000 mm 0 W/m 2,7 C 4,5 C 3,2 km/h (1 Bft) 98 %
20.02.2014 06:40 4,4 C 4,3 C 4,5 C 88 % 1015,8 hPa 0,0 l/m 1,6 km/h (1 Bft) S-SO 157 0 min 0,000 mm 0 W/m 2,6 C 4,4 C 4,8 km/h (1 Bft) 99 %
20.02.2014 06:50 4,4 C 4,4 C 4,4 C 88 % 1015,6 hPa 0,0 l/m 1,6 km/h (1 Bft) S-SO 157 0 min 0,000 mm 0 W/m 2,6 C 4,4 C 4,8 km/h (1 Bft) 99 %
20.02.2014 07:00 4,5 C 4,4 C 4,5 C 88 % 1015,6 hPa 0,0 l/m 1,6 km/h (1 Bft) S-SO 157 0 min 0,000 mm 0 W/m 2,7 C 4,5 C 6,4 km/h (2 Bft) 100 %
20.02.2014 07:10 4,5 C 4,5 C 4,5 C 88 % 1015,5 hPa 0,0 l/m 0,0 km/h (0 Bft) S-SO 157 0 min 0,000 mm 0 W/m 2,7 C 4,5 C 4,8 km/h (1 Bft) 100 %
20.02.2014 07:20 4,5 C 4,4 C 4,5 C 88 % 1015,4 hPa 0,0 l/m 1,6 km/h (1 Bft) S-SO 157 0 min 0,000 mm 0 W/m 2,7 C 4,5 C 4,8 km/h (1 Bft) 100 %
20.02.2014 07:30 4,4 C 4,4 C 4,5 C 88 % 1015,3 hPa 0,0 l/m 0,0 km/h (0 Bft) S-SO 157 0 min 0,000 mm 0 W/m 2,6 C 4,4 C 3,2 km/h (1 Bft) 99 %
20.02.2014 07:40 4,4 C 4,4 C 4,5 C 89 % 1015,3 hPa 0,0 l/m 0,0 km/h (0 Bft) S-SO 157 0 min 0,000 mm 7 W/m 2,7 C 4,4 C 1,6 km/h (1 Bft) 100 %
20.02.2014 07:50 4,4 C 4,4 C 4,4 C 89 % 1015,4 hPa 0,0 l/m 0,0 km/h (0 Bft) S-SW 202 0 min 0,000 mm 16 W/m 2,7 C 4,4 C 3,2 km/h (1 Bft) 100 %
20.02.2014 08:00 4,3 C 4,3 C 4,4 C 88 % 1015,5 hPa 0,0 l/m 0,0 km/h (0 Bft) SO 135 0 min 0,000 mm 39 W/m 2,5 C 4,3 C 4,8 km/h (1 Bft) 100 %
20.02.2014 08:10 4,4 C 4,3 C 4,4 C 88 % 1015,4 hPa 0,0 l/m 0,0 km/h (0 Bft) N 0 0 min 0,000 mm 40 W/m 2,6 C 4,4 C 0,0 km/h (0 Bft) 89 %
20.02.2014 08:20 4,3 C 4,3 C 4,4 C 88 % 1015,5 hPa 0,0 l/m 0,0 km/h (0 Bft) S-SO 157 0 min 0,000 mm 35 W/m 2,5 C 4,3 C 3,2 km/h (1 Bft) 100 %
20.02.2014 08:30 4,4 C 4,3 C 4,4 C 88 % 1015,4 hPa 0,0 l/m 0,0 km/h (0 Bft) S-SO 157 0 min 0,000 mm 42 W/m 2,6 C 4,4 C 3,2 km/h (1 Bft) 100 %
20.02.2014 08:40 4,5 C 4,4 C 4,5 C 88 % 1015,5 hPa 0,0 l/m 0,0 km/h (0 Bft) S-SO 157 0 min 0,000 mm 49 W/m 2,7 C 4,5 C 3,2 km/h (1 Bft) 100 %
20.02.2014 08:50 4,6 C 4,5 C 4,6 C 88 % 1015,4 hPa 0,0 l/m 0,0 km/h (0 Bft) S-SO 157 0 min 0,000 mm 51 W/m 2,8 C 4,6 C 4,8 km/h (1 Bft) 100 %
20.02.2014 09:00 4,7 C 4,6 C 4,7 C 88 % 1015,4 hPa 0,0 l/m 0,0 km/h (0 Bft) S-SO 157 0 min 0,025 mm 65 W/m 2,9 C 4,7 C 3,2 km/h (1 Bft) 100 %
20.02.2014 09:10 4,7 C 4,7 C 4,7 C 89 % 1015,4 hPa 0,0 l/m 1,6 km/h (1 Bft) S-SW 202 0 min 0,000 mm 72 W/m 3,0 C 4,7 C 4,8 km/h (1 Bft) 100 %
20.02.2014 09:20 4,8 C 4,7 C 4,8 C 89 % 1015,4 hPa 0,0 l/m 0,0 km/h (0 Bft) S-SW 202 0 min 0,000 mm 67 W/m 3,1 C 4,8 C 4,8 km/h (1 Bft) 100 %
20.02.2014 09:30 4,8 C 4,8 C 4,9 C 89 % 1015,4 hPa 0,0 l/m 1,6 km/h (1 Bft) S-SW 202 0 min 0,000 mm 72 W/m 3,1 C 4,8 C 6,4 km/h (2 Bft) 99 %
20.02.2014 09:40 4,9 C 4,9 C 4,9 C 89 % 1015,4 hPa 0,0 l/m 0,0 km/h (0 Bft) S-SW 202 0 min 0,000 mm 90 W/m 3,2 C 4,9 C 6,4 km/h (2 Bft) 99 %
20.02.2014 09:50 5,1 C 5,0 C 5,1 C 89 % 1015,3 hPa 0,0 l/m 0,0 km/h (0 Bft) S-SW 202 0 min 0,000 mm 105 W/m 3,4 C 5,1 C 4,8 km/h (1 Bft) 99 %
20.02.2014 10:00 5,3 C 5,1 C 5,3 C 89 % 1015,2 hPa 0,0 l/m 0,0 km/h (0 Bft) S-SW 202 0 min 0,025 mm 128 W/m 3,6 C 5,3 C 3,2 km/h (1 Bft) 100 %
20.02.2014 10:10 5,4 C 5,3 C 5,4 C 89 % 1015,1 hPa 0,0 l/m 1,6 km/h (1 Bft) S 180 10 min 0,000 mm 171 W/m 3,7 C 5,4 C 6,4 km/h (2 Bft) 99 %
20.02.2014 10:20 5,8 C 5,4 C 5,8 C 89 % 1015,1 hPa 0,0 l/m 1,6 km/h (1 Bft) S 180 10 min 0,000 mm 183 W/m 4,1 C 5,8 C 9,7 km/h (2 Bft) 89 %
20.02.2014 10:30 6,2 C 5,8 C 6,2 C 88 % 1014,9 hPa 0,0 l/m 3,2 km/h (1 Bft) S-SO 157 10 min 0,000 mm 281 W/m 4,4 C 6,2 C 11,3 km/h (2 Bft) 100 %
20.02.2014 10:40 6,3 C 6,2 C 6,3 C 87 % 1014,9 hPa 0,0 l/m 4,8 km/h (1 Bft) SO 135 10 min 0,000 mm 260 W/m 4,3 C 6,3 C 11,3 km/h (2 Bft) 100 %
20.02.2014 10:50 6,8 C 6,3 C 6,8 C 87 % 1014,9 hPa 0,0 l/m 1,6 km/h (1 Bft) S 180 10 min 0,000 mm 364 W/m 4,8 C 6,8 C 8,0 km/h (2 Bft) 100 %
20.02.2014 11:00 7,1 C 6,8 C 7,1 C 85 % 1014,8 hPa 0,0 l/m 4,8 km/h (1 Bft) S-SO 157 10 min 0,102 mm 285 W/m 4,8 C 7,1 C 11,3 km/h (2 Bft) 100 %
20.02.2014 11:10 7,5 C 6,8 C 7,5 C 84 % 1014,5 hPa 0,0 l/m 1,1 km/h (1 Bft) SO 129 10 min 0,000 mm 610 W/m 5,0 C 7,5 C 4,8 km/h (1 Bft) 97 %
20.02.2014 11:20 8,3 C 7,5 C 8,3 C 83 % 1014,4 hPa 0,0 l/m 1,8 km/h (1 Bft) S-SW 196 10 min 0,000 mm 381 W/m 5,6 C 8,3 C 9,7 km/h (2 Bft) 97 %
20.02.2014 11:30 8,9 C 8,3 C 8,9 C 81 % 1014,4 hPa 0,0 l/m 4,0 km/h (1 Bft) S-SW 194 10 min 0,000 mm 461 W/m 5,8 C 8,9 C 14,5 km/h (3 Bft) 97 %
20.02.2014 11:40 8,8 C 8,8 C 9,0 C 77 % 1014,4 hPa 0,0 l/m 4,0 km/h (1 Bft) S-SW 192 10 min 0,000 mm 218 W/m 5,0 C 8,8 C 16,1 km/h (3 Bft) 97 %
20.02.2014 11:50 9,1 C 8,8 C 9,1 C 77 % 1014,3 hPa 0,0 l/m 7,1 km/h (2 Bft) S-SO 153 10 min 0,000 mm 629 W/m 5,3 C 8,6 C 19,3 km/h (3 Bft) 98 %
20.02.2014 12:00 9,6 C 9,1 C 9,6 C 77 % 1014,1 hPa 0,0 l/m 3,5 km/h (1 Bft) SW 215 10 min 0,229 mm 649 W/m 5,8 C 9,6 C 11,3 km/h (2 Bft) 97 %
20.02.2014 12:10 9,6 C 9,6 C 9,8 C 74 % 1013,9 hPa 0,0 l/m 9,1 km/h (2 Bft) S-SW 205 10 min 0,000 mm 589 W/m 5,2 C 7,7 C 20,9 km/h (4 Bft) 98 %
20.02.2014 12:20 9,7 C 9,5 C 9,7 C 74 % 1013,7 hPa 0,0 l/m 5,1 km/h (1 Bft) W-SW 242 10 min 0,000 mm 494 W/m 5,3 C 9,7 C 19,3 km/h (3 Bft) 97 %
20.02.2014 12:30 10,1 C 9,7 C 10,1 C 72 % 1013,6 hPa 0,0 l/m 3,8 km/h (1 Bft) W 259 10 min 0,000 mm 496 W/m 5,3 C 10,1 C 16,1 km/h (3 Bft) 98 %
20.02.2014 12:40 10,2 C 10,1 C 10,2 C 71 % 1013,3 hPa 0,0 l/m 6,9 km/h (2 Bft) SW 222 10 min 0,000 mm 499 W/m 5,2 C 9,8 C 16,1 km/h (3 Bft) 98 %
20.02.2014 12:50 10,6 C 10,2 C 10,6 C 69 % 1013,1 hPa 0,0 l/m 6,4 km/h (2 Bft) S-SW 209 10 min 0,000 mm 501 W/m 5,2 C 10,6 C 19,3 km/h (3 Bft) 97 %
20.02.2014 13:00 10,6 C 10,6 C 10,7 C 65 % 1013,0 hPa 0,0 l/m 8,6 km/h (2 Bft) W 261 10 min 0,229 mm 227 W/m 4,3 C 9,1 C 20,9 km/h (4 Bft) 97 %
20.02.2014 13:10 10,3 C 10,3 C 10,6 C 67 % 1012,8 hPa 0,0 l/m 4,3 km/h (1 Bft) S-SW 207 10 min 0,000 mm 179 W/m 4,4 C 10,3 C 16,1 km/h (3 Bft) 97 %
20.02.2014 13:20 10,0 C 10,0 C 10,3 C 66 % 1012,8 hPa 0,0 l/m 4,0 km/h (1 Bft) W-SW 257 10 min 0,000 mm 167 W/m 3,9 C 10,0 C 11,3 km/h (2 Bft) 97 %
20.02.2014 13:30 10,3 C 10,0 C 10,3 C 67 % 1012,6 hPa 0,0 l/m 5,7 km/h (1 Bft) S-SW 204 10 min 0,000 mm 513 W/m 4,4 C 10,3 C 14,5 km/h (3 Bft) 96 %
20.02.2014 13:40 10,4 C 10,3 C 10,7 C 63 % 1012,5 hPa 0,0 l/m 9,4 km/h (2 Bft) S 190 0 min 0,000 mm 139 W/m 3,7 C 8,4 C 20,9 km/h (4 Bft) 97 %
20.02.2014 13:50 10,6 C 10,3 C 10,6 C 64 % 1012,3 hPa 0,0 l/m 8,7 km/h (2 Bft) S-SO 152 10 min 0,000 mm 192 W/m 4,1 C 9,0 C 19,3 km/h (3 Bft) 97 %
20.02.2014 14:00 11,1 C 10,6 C 11,1 C 62 % 1012,2 hPa 0,0 l/m 6,2 km/h (2 Bft) SO 139 10 min 0,177 mm 540 W/m 4,1 C 11,1 C 17,7 km/h (3 Bft) 97 %
20.02.2014 14:10 11,3 C 11,1 C 11,3 C 61 % 1012,0 hPa 0,0 l/m 10,2 km/h (2 Bft) S-SO 158 10 min 0,000 mm 475 W/m 4,1 C 8,9 C 20,9 km/h (4 Bft) 97 %
20.02.2014 14:20 11,3 C 11,2 C 11,4 C 60 % 1012,0 hPa 0,0 l/m 6,9 km/h (2 Bft) SW 214 10 min 0,000 mm 446 W/m 3,8 C 11,0 C 17,7 km/h (3 Bft) 97 %
20.02.2014 14:30 11,2 C 11,2 C 11,5 C 60 % 1011,8 hPa 0,0 l/m 8,5 km/h (2 Bft) S 185 10 min 0,000 mm 450 W/m 3,7 C 9,8 C 19,3 km/h (3 Bft) 90 %
20.02.2014 14:40 10,8 C 10,8 C 11,2 C 59 % 1011,6 hPa 0,0 l/m 5,2 km/h (1 Bft) S 186 0 min 0,000 mm 84 W/m 3,1 C 10,8 C 17,7 km/h (3 Bft) 97 %
20.02.2014 14:50 10,5 C 10,5 C 10,8 C 59 % 1011,4 hPa 0,0 l/m 4,2 km/h (1 Bft) SO 129 0 min 0,000 mm 70 W/m 2,8 C 10,5 C 9,7 km/h (2 Bft) 97 %
20.02.2014 15:00 10,8 C 10,4 C 10,8 C 62 % 1011,4 hPa 0,0 l/m 7,2 km/h (2 Bft) SO 140 10 min 0,178 mm 378 W/m 3,8 C 10,2 C 17,7 km/h (3 Bft) 97 %
20.02.2014 15:10 11,1 C 10,8 C 11,2 C 58 % 1011,3 hPa 0,0 l/m 7,1 km/h (2 Bft) O-SO 121 10 min 0,000 mm 339 W/m 3,2 C 10,6 C 16,1 km/h (3 Bft) 98 %
20.02.2014 15:20 11,2 C 10,9 C 11,2 C 59 % 1011,3 hPa 0,0 l/m 8,4 km/h (2 Bft) S 186 10 min 0,000 mm 320 W/m 3,5 C 9,9 C 24,1 km/h (4 Bft) 97 %
20.02.2014 15:30 11,3 C 11,2 C 11,3 C 59 % 1011,1 hPa 0,0 l/m 3,7 km/h (1 Bft) SW 228 10 min 0,000 mm 301 W/m 3,6 C 11,3 C 17,7 km/h (3 Bft) 97 %
20.02.2014 15:40 11,4 C 11,3 C 11,4 C 57 % 1011,0 hPa 0,0 l/m 5,5 km/h (1 Bft) S-SW 205 10 min 0,000 mm 279 W/m 3,2 C 11,4 C 17,7 km/h (3 Bft) 97 %
20.02.2014 15:50 11,5 C 11,4 C 11,6 C 56 % 1011,0 hPa 0,0 l/m 3,5 km/h (1 Bft) SW 217 10 min 0,000 mm 257 W/m 3,0 C 11,5 C 12,9 km/h (3 Bft) 97 %
20.02.2014 16:00 11,7 C 11,5 C 11,7 C 57 % 1010,9 hPa 0,0 l/m 3,7 km/h (1 Bft) S-SO 149 0 min 0,178 mm 98 W/m 3,5 C 11,7 C 16,1 km/h (3 Bft) 98 %
20.02.2014 16:10 11,6 C 11,6 C 11,7 C 55 % 1010,8 hPa 0,0 l/m 5,1 km/h (1 Bft) S 171 0 min 0,000 mm 33 W/m 2,9 C 11,6 C 16,1 km/h (3 Bft) 100 %
20.02.2014 16:20 11,5 C 11,5 C 11,7 C 56 % 1010,7 hPa 0,0 l/m 4,0 km/h (1 Bft) S-SW 199 0 min 0,000 mm 33 W/m 3,0 C 11,5 C 12,9 km/h (3 Bft) 99 %
20.02.2014 16:30 11,2 C 11,2 C 11,5 C 57 % 1010,7 hPa 0,0 l/m 2,7 km/h (1 Bft) SW 216 0 min 0,000 mm 25 W/m 3,0 C 11,2 C 11,3 km/h (2 Bft) 100 %
20.02.2014 16:40 10,9 C 10,9 C 11,2 C 59 % 1010,6 hPa 0,0 l/m 1,4 km/h (1 Bft) SW 214 0 min 0,000 mm 32 W/m 3,2 C 10,9 C 8,0 km/h (2 Bft) 100 %
20.02.2014 16:50 10,8 C 10,8 C 10,9 C 58 % 1010,5 hPa 0,0 l/m 2,3 km/h (1 Bft) S 190 0 min 0,000 mm 28 W/m 2,9 C 10,8 C 9,7 km/h (2 Bft) 100 %
20.02.2014 17:00 10,7 C 10,7 C 10,8 C 59 % 1010,4 hPa 0,0 l/m 1,6 km/h (1 Bft) S 178 0 min 0,025 mm 32 W/m 3,0 C 10,7 C 9,7 km/h (2 Bft) 100 %
20.02.2014 17:10 10,6 C 10,6 C 10,7 C 59 % 1010,4 hPa 0,0 l/m 1,8 km/h (1 Bft) S-SW 192 0 min 0,000 mm 35 W/m 2,9 C 10,6 C 8,0 km/h (2 Bft) 100 %
20.02.2014 17:20 10,5 C 10,5 C 10,6 C 60 % 1010,5 hPa 0,0 l/m 0,3 km/h (0 Bft) S-SW 213 0 min 0,000 mm 25 W/m 3,1 C 10,5 C 6,4 km/h (2 Bft) 100 %
20.02.2014 17:30 10,3 C 10,3 C 10,5 C 61 % 1010,5 hPa 0,0 l/m 1,8 km/h (1 Bft) SW 219 0 min 0,000 mm 11 W/m 3,1 C 10,3 C 6,4 km/h (2 Bft) 99 %
20.02.2014 17:40 9,8 C 9,8 C 10,3 C 63 % 1010,4 hPa 0,0 l/m 0,1 km/h (0 Bft) SW 219 0 min 0,000 mm 0 W/m 3,1 C 9,8 C 3,2 km/h (1 Bft) 100 %
20.02.2014 17:50 9,4 C 9,4 C 9,8 C 62 % 1010,3 hPa 0,0 l/m 0,8 km/h (0 Bft) W 277 0 min 0,000 mm 0 W/m 2,5 C 9,4 C 6,4 km/h (2 Bft) 100 %
20.02.2014 18:00 9,2 C 9,2 C 9,4 C 63 % 1010,2 hPa 0,0 l/m 0,6 km/h (0 Bft) W-SW 247 0 min 0,026 mm 0 W/m 2,5 C 9,2 C 6,4 km/h (2 Bft) 100 %
20.02.2014 18:10 8,9 C 8,9 C 9,2 C 64 % 1010,3 hPa 0,0 l/m 0,2 km/h (0 Bft) W-SW 247 0 min 0,000 mm 0 W/m 2,5 C 8,9 C 3,2 km/h (1 Bft) 100 %
20.02.2014 18:20 8,6 C 8,6 C 8,9 C 65 % 1010,3 hPa 0,0 l/m 0,4 km/h (0 Bft) W-SW 247 0 min 0,000 mm 0 W/m 2,4 C 8,6 C 4,8 km/h (1 Bft) 100 %
20.02.2014 18:30 8,3 C 8,3 C 8,6 C 66 % 1010,2 hPa 0,0 l/m 0,0 km/h (0 Bft) W-SW 247 0 min 0,000 mm 0 W/m 2,3 C 8,3 C 0,0 km/h (0 Bft) 97 %
20.02.2014 18:40 7,9 C 7,9 C 8,3 C 67 % 1010,3 hPa 0,0 l/m 0,0 km/h (0 Bft) W-SW 247 0 min 0,000 mm 0 W/m 2,2 C 7,9 C 1,6 km/h (1 Bft) 94 %
20.02.2014 18:50 7,8 C 7,8 C 7,9 C 68 % 1010,3 hPa 0,0 l/m 0,0 km/h (0 Bft) W-SW 247 0 min 0,000 mm 0 W/m 2,3 C 7,8 C 0,0 km/h (0 Bft) 100 %
20.02.2014 19:00 7,6 C 7,6 C 7,8 C 68 % 1010,3 hPa 0,0 l/m 0,0 km/h (0 Bft) W-SW 247 0 min 0,025 mm 0 W/m 2,1 C 7,6 C 0,0 km/h (0 Bft) 100 %
20.02.2014 19:10 7,4 C 7,4 C 7,6 C 69 % 1010,1 hPa 0,0 l/m 0,1 km/h (0 Bft) W-SW 247 0 min 0,000 mm 0 W/m 2,1 C 7,4 C 1,6 km/h (1 Bft) 100 %
20.02.2014 19:20 7,3 C 7,3 C 7,4 C 69 % 1010,1 hPa 0,0 l/m 0,1 km/h (0 Bft) W-SW 247 0 min 0,000 mm 0 W/m 2,0 C 7,3 C 1,6 km/h (1 Bft) 100 %
20.02.2014 19:30 7,0 C 7,0 C 7,3 C 71 % 1010,0 hPa 0,0 l/m 0,0 km/h (0 Bft) W-SW 247 0 min 0,000 mm 0 W/m 2,1 C 7,0 C 1,6 km/h (1 Bft) 100 %
20.02.2014 19:40 6,7 C 6,7 C 7,0 C 72 % 1010,0 hPa 0,0 l/m 0,0 km/h (0 Bft) W-SW 247 0 min 0,000 mm 0 W/m 2,0 C 6,7 C 1,6 km/h (1 Bft) 91 %
20.02.2014 19:50 6,2 C 6,2 C 6,7 C 73 % 1009,9 hPa 0,0 l/m 0,0 km/h (0 Bft) W-SW 247 0 min 0,000 mm 0 W/m 1,7 C 6,2 C 0,0 km/h (0 Bft) 100 %
20.02.2014 20:00 5,8 C 5,8 C 6,2 C 75 % 1009,9 hPa 0,0 l/m 0,0 km/h (0 Bft) W-SW 247 0 min 0,026 mm 0 W/m 1,7 C 5,8 C 1,6 km/h (1 Bft) 100 %
20.02.2014 20:10 5,4 C 5,4 C 5,8 C 76 % 1009,9 hPa 0,0 l/m 0,0 km/h (0 Bft) W-SW 247 0 min 0,000 mm 0 W/m 1,5 C 5,4 C 0,0 km/h (0 Bft) 100 %
20.02.2014 20:20 5,1 C 5,1 C 5,4 C 77 % 1009,8 hPa 0,0 l/m 0,0 km/h (0 Bft) W-SW 247 0 min 0,000 mm 0 W/m 1,4 C 5,1 C 0,0 km/h (0 Bft) 100 %
20.02.2014 20:30 4,9 C 4,9 C 5,1 C 78 % 1009,8 hPa 0,0 l/m 0,0 km/h (0 Bft) W-SW 247 0 min 0,000 mm 0 W/m 1,4 C 4,9 C 0,0 km/h (0 Bft) 100 %
20.02.2014 20:40 4,7 C 4,7 C 4,9 C 79 % 1009,6 hPa 0,0 l/m 0,0 km/h (0 Bft) W-SW 247 0 min 0,000 mm 0 W/m 1,4 C 4,7 C 0,0 km/h (0 Bft) 100 %
20.02.2014 20:50 4,5 C 4,5 C 4,7 C 80 % 1009,6 hPa 0,0 l/m 0,2 km/h (0 Bft) W-SW 247 0 min 0,000 mm 0 W/m 1,4 C 4,5 C 1,6 km/h (1 Bft) 100 %
20.02.2014 21:00 4,3 C 4,3 C 4,5 C 80 % 1009,7 hPa 0,0 l/m 0,2 km/h (0 Bft) W-SW 247 0 min 0,000 mm 0 W/m 1,2 C 4,3 C 3,2 km/h (1 Bft) 100 %
20.02.2014 21:10 4,2 C 4,2 C 4,3 C 81 % 1009,7 hPa 0,0 l/m 0,0 km/h (0 Bft) W-SW 247 0 min 0,000 mm 0 W/m 1,2 C 4,2 C 3,2 km/h (1 Bft) 98 %
20.02.2014 21:20 4,0 C 4,0 C 4,2 C 82 % 1009,7 hPa 0,0 l/m 0,0 km/h (0 Bft) N 0 0 min 0,000 mm 0 W/m 1,2 C 4,0 C 0,0 km/h (0 Bft) 97 %
20.02.2014 21:30 3,8 C 3,8 C 4,0 C 83 % 1009,6 hPa 0,0 l/m 1,6 km/h (1 Bft) W-SW 247 0 min 0,000 mm 0 W/m 1,2 C 3,8 C 3,2 km/h (1 Bft) 97 %
20.02.2014 21:40 4,0 C 3,8 C 4,0 C 82 % 1009,7 hPa 0,0 l/m 1,6 km/h (1 Bft) S-SO 157 0 min 0,000 mm 0 W/m 1,2 C 4,0 C 4,8 km/h (1 Bft) 98 %
20.02.2014 21:50 4,6 C 4,0 C 4,6 C 81 % 1009,6 hPa 0,0 l/m 0,0 km/h (0 Bft) SO 135 0 min 0,000 mm 0 W/m 1,6 C 4,6 C 6,4 km/h (2 Bft) 97 %
20.02.2014 22:00 4,6 C 4,5 C 4,6 C 80 % 1009,5 hPa 0,0 l/m 0,0 km/h (0 Bft) N 0 0 min 0,000 mm 0 W/m 1,5 C 4,6 C 0,0 km/h (0 Bft) 98 %
20.02.2014 22:10 4,3 C 4,3 C 4,5 C 81 % 1009,4 hPa 0,0 l/m 0,0 km/h (0 Bft) S-SO 157 0 min 0,000 mm 0 W/m 1,3 C 4,3 C 3,2 km/h (1 Bft) 98 %
20.02.2014 22:20 4,1 C 4,1 C 4,3 C 83 % 1009,2 hPa 0,0 l/m 1,6 km/h (1 Bft) S-SO 157 0 min 0,000 mm 0 W/m 1,5 C 4,1 C 3,2 km/h (1 Bft) 98 %
20.02.2014 22:30 4,2 C 4,1 C 4,2 C 82 % 1009,2 hPa 0,0 l/m 1,6 km/h (1 Bft) S-SO 157 0 min 0,000 mm 0 W/m 1,4 C 4,2 C 6,4 km/h (2 Bft) 98 %
20.02.2014 22:40 4,4 C 4,2 C 4,4 C 82 % 1009,2 hPa 0,0 l/m 1,6 km/h (1 Bft) SO 135 0 min 0,000 mm 0 W/m 1,6 C 4,4 C 9,7 km/h (2 Bft) 97 %
20.02.2014 22:50 4,9 C 4,4 C 4,9 C 80 % 1009,2 hPa 0,0 l/m 3,2 km/h (1 Bft) S-SO 157 0 min 0,000 mm 0 W/m 1,7 C 4,9 C 9,7 km/h (2 Bft) 98 %
20.02.2014 23:00 4,8 C 4,8 C 5,0 C 80 % 1009,1 hPa 0,0 l/m 1,6 km/h (1 Bft) S-SO 157 0 min 0,000 mm 0 W/m 1,6 C 4,8 C 9,7 km/h (2 Bft) 97 %
20.02.2014 23:10 4,4 C 4,4 C 4,8 C 82 % 1009,1 hPa 0,0 l/m 3,2 km/h (1 Bft) S-SO 157 0 min 0,000 mm 0 W/m 1,6 C 4,4 C 9,7 km/h (2 Bft) 98 %
20.02.2014 23:20 4,5 C 4,4 C 4,5 C 82 % 1009,1 hPa 0,0 l/m 1,6 km/h (1 Bft) S-SO 157 0 min 0,000 mm 0 W/m 1,7 C 4,5 C 6,4 km/h (2 Bft) 97 %
20.02.2014 23:30 4,6 C 4,4 C 4,6 C 83 % 1008,9 hPa 0,0 l/m 1,6 km/h (1 Bft) S-SO 157 0 min 0,000 mm 0 W/m 2,0 C 4,6 C 8,0 km/h (2 Bft) 97 %
20.02.2014 23:40 5,0 C 4,6 C 5,0 C 82 % 1009,0 hPa 0,0 l/m 3,2 km/h (1 Bft) S-SO 157 0 min 0,000 mm 0 W/m 2,2 C 5,0 C 9,7 km/h (2 Bft) 98 %
20.02.2014 23:50 4,9 C 4,9 C 5,0 C 82 % 1009,0 hPa 0,0 l/m 1,6 km/h (1 Bft) S-SW 202 0 min 0,000 mm 0 W/m 2,1 C 4,9 C 6,4 km/h (2 Bft) 97 %
_ Min-Zeit 21:30 21:30 02:30 16:10 23:30 - 00:10 - - - - - 21:00 21:30 02:20 02:10
Minimum _ 3,8 C 3,8 C 3,9 C 55 % 1008,9 hPa - 0,0 km/h (0 Bft) - - - - - 1,2 C 3,8 C 0,0 km/h (0 Bft) 88 %
_ Max-Zeit 16:00 16:10 16:00 07:40 02:30 00:00 14:10 - - 10:10 12:00 12:00 11:30 16:00 15:20 07:00
Maximum _ 11,7 C 11,6 C 11,7 C 89 % 1016,6 hPa 0,0 l/m 10,2 km/h
S-SO (2 Bft)
- - 10 min 0,229 mm 649 W/m 5,8 C 11,7 C 24,1 km/h
S-SW (4 Bft)
100 %
Durchschnitt _ 6,6 C 6,5 C 6,7 C 78 % 1013,2 hPa #0,0 l/m 1,9 km/h (1 Bft) S-SO - #5:20 h #1,245 mm 228 W/m 2,9 C 6,5 C 7,0 km/h (2 Bft) 98 %
PRIVATE WETTERSTATION BILLIGHEIM-ALLFELD - www.neckar-odenwald-wetter.de - Holger Sonntag